createdAt,value
2023-03-06T00:02:54.851Z,99679.53
2023-03-06T00:05:57.840Z,99676.59
2023-03-06T00:08:59.646Z,99671.50
2023-03-06T00:12:01.383Z,99659.00
2023-03-06T00:15:05.544Z,99662.81
2023-03-06T00:18:07.984Z,99657.09
2023-03-06T00:21:09.712Z,99653.00
2023-03-06T00:24:11.349Z,99659.72
2023-03-06T00:27:12.983Z,99662.81
2023-03-06T00:30:18.786Z,99653.72
2023-03-06T00:33:20.631Z,99656.81
2023-03-06T00:36:22.293Z,99652.88
2023-03-06T00:39:24.478Z,99648.22
2023-03-06T00:42:28.368Z,99641.84
2023-03-06T00:45:30.150Z,99648.50
2023-03-06T00:48:33.575Z,99636.47
2023-03-06T00:51:35.504Z,99647.88
2023-03-06T00:54:37.570Z,99643.03
2023-03-06T00:57:39.336Z,99639.75
2023-03-06T01:00:41.077Z,99632.38
2023-03-06T01:03:42.883Z,99630.28
2023-03-06T01:06:44.736Z,99628.34
2023-03-06T01:09:46.582Z,99628.25
2023-03-06T01:12:49.872Z,99625.91
2023-03-06T01:15:53.338Z,99619.44
2023-03-06T01:18:56.766Z,99615.75
2023-03-06T01:21:58.509Z,99624.06
2023-03-06T01:25:00.202Z,99613.50
2023-03-06T01:28:01.849Z,99610.50
2023-03-06T01:31:04.362Z,99604.91
2023-03-06T01:34:06.372Z,99603.09
2023-03-06T01:37:08.175Z,99592.63
2023-03-06T01:40:12.409Z,99603.19
2023-03-06T01:43:30.439Z,99595.25
2023-03-06T01:46:43.211Z,99598.25
2023-03-06T01:49:44.899Z,99592.81
2023-03-06T01:52:59.912Z,99584.22
2023-03-06T01:56:01.775Z,99590.94
2023-03-06T01:59:04.793Z,99589.94
2023-03-06T02:02:10.150Z,99584.41
2023-03-06T02:05:12.364Z,99582.59
2023-03-06T02:08:17.589Z,99577.38
2023-03-06T02:11:25.756Z,99576.28
2023-03-06T02:14:29.046Z,99568.28
2023-03-06T02:17:30.685Z,99575.47
2023-03-06T02:20:40.691Z,99563.16
2023-03-06T02:23:59.874Z,99560.34
2023-03-06T02:27:04.248Z,99560.16
2023-03-06T02:30:10.869Z,99554.56
2023-03-06T02:33:22.146Z,99546.84
2023-03-06T02:36:23.902Z,99547.91
2023-03-06T02:39:28.122Z,99549.66
2023-03-06T02:42:30.341Z,99545.09
2023-03-06T02:45:45.322Z,99540.66
2023-03-06T02:48:47.399Z,99540.56
2023-03-06T02:51:50.194Z,99545.22
2023-03-06T02:54:52.161Z,99545.09
2023-03-06T02:57:54.129Z,99542.47
2023-03-06T03:00:56.002Z,99530.88
2023-03-06T03:03:58.239Z,99537.00
2023-03-06T03:07:00.420Z,99531.88
2023-03-06T03:10:02.658Z,99527.97
2023-03-06T03:13:04.416Z,99529.34
2023-03-06T03:16:14.092Z,99532.63
2023-03-06T03:19:16.053Z,99522.22
2023-03-06T03:22:18.590Z,99519.31
2023-03-06T03:25:21.710Z,99518.13
2023-03-06T03:28:23.417Z,99524.53
2023-03-06T03:31:26.169Z,99520.16
2023-03-06T03:34:28.393Z,99512.31
2023-03-06T03:37:30.828Z,99511.56
2023-03-06T03:40:33.300Z,99509.28
2023-03-06T03:43:35.192Z,99507.94
2023-03-06T03:46:38.116Z,99509.66
2023-03-06T03:49:44.794Z,99490.63
2023-03-06T03:52:46.954Z,99495.06
2023-03-06T03:55:49.209Z,99487.78
2023-03-06T03:58:53.808Z,99480.34
2023-03-06T04:01:56.696Z,99481.97
2023-03-06T04:04:59.977Z,99482.88
2023-03-06T04:08:03.488Z,99469.38
2023-03-06T04:11:06.681Z,99469.66
2023-03-06T04:14:09.865Z,99467.00
2023-03-06T04:17:12.304Z,99461.09
2023-03-06T04:20:14.766Z,99457.19
2023-03-06T04:23:18.609Z,99455.44
2023-03-06T04:26:21.145Z,99452.00
2023-03-06T04:29:23.963Z,99451.53
2023-03-06T04:32:26.061Z,99447.78
2023-03-06T04:35:28.454Z,99451.34
2023-03-06T04:38:35.816Z,99450.53
2023-03-06T04:41:40.982Z,99442.81
2023-03-06T04:44:43.349Z,99437.09
2023-03-06T04:47:45.092Z,99443.84
2023-03-06T04:50:47.267Z,99435.28
2023-03-06T04:53:49.058Z,99436.09
2023-03-06T04:56:51.271Z,99438.31
2023-03-06T04:59:52.854Z,99435.94
2023-03-06T05:02:54.656Z,99430.53
2023-03-06T05:05:56.270Z,99429.84
2023-03-06T05:08:58.389Z,99429.91
2023-03-06T05:12:00.094Z,99430.28
2023-03-06T05:15:01.896Z,99426.75
2023-03-06T05:18:04.397Z,99428.50
2023-03-06T05:21:06.695Z,99429.31
2023-03-06T05:24:09.538Z,99426.91
2023-03-06T05:27:11.749Z,99425.47
2023-03-06T05:30:15.173Z,99420.84
2023-03-06T05:33:16.975Z,99423.38
2023-03-06T05:36:18.613Z,99419.84
2023-03-06T05:39:21.297Z,99424.81
2023-03-06T05:42:23.272Z,99419.63
2023-03-06T05:45:24.905Z,99425.56
2023-03-06T05:48:26.557Z,99411.88
2023-03-06T05:51:28.213Z,99416.69
2023-03-06T05:54:31.536Z,99418.63
2023-03-06T05:57:33.675Z,99415.88
2023-03-06T06:00:35.347Z,99411.78
2023-03-06T06:03:37.531Z,99417.63
2023-03-06T06:06:39.085Z,99405.75
2023-03-06T06:09:41.324Z,99407.69
2023-03-06T06:12:43.039Z,99404.16
2023-03-06T06:15:44.984Z,99399.56
2023-03-06T06:18:46.724Z,99398.13
2023-03-06T06:21:51.896Z,99400.38
2023-03-06T06:24:53.855Z,99398.56
2023-03-06T06:27:56.748Z,99402.84
2023-03-06T06:30:58.316Z,99401.22
2023-03-06T06:34:00.200Z,99405.88
2023-03-06T06:37:01.955Z,99405.56
2023-03-06T06:40:04.636Z,99397.00
2023-03-06T06:43:06.238Z,99392.09
2023-03-06T06:46:38.775Z,99393.44
2023-03-06T06:49:29.874Z,99389.97
2023-03-06T06:52:31.633Z,99389.69
2023-03-06T06:55:33.528Z,99385.03
2023-03-06T06:58:35.257Z,99393.41
2023-03-06T07:01:37.131Z,99399.22
2023-03-06T07:04:49.347Z,99394.56
2023-03-06T07:07:58.343Z,99395.19
2023-03-06T07:11:07.530Z,99398.28
2023-03-06T07:14:09.262Z,99405.94
2023-03-06T07:17:10.968Z,99395.09
2023-03-06T07:20:12.868Z,99399.38
2023-03-06T07:23:14.808Z,99389.19
2023-03-06T07:26:17.108Z,99394.22
2023-03-06T07:29:18.654Z,99395.75
2023-03-06T07:32:21.523Z,99399.84
2023-03-06T07:35:24.122Z,99397.00
2023-03-06T07:38:26.135Z,99400.28
2023-03-06T07:41:27.893Z,99400.13
2023-03-06T07:44:29.579Z,99397.56
2023-03-06T07:47:31.223Z,99397.94
2023-03-06T07:50:33.238Z,99403.53
2023-03-06T07:53:35.738Z,99394.31
2023-03-06T07:56:37.675Z,99407.00
2023-03-06T07:59:39.326Z,99396.34
2023-03-06T08:02:42.194Z,99405.09
2023-03-06T08:05:59.581Z,99400.59
2023-03-06T08:09:01.893Z,99409.00
2023-03-06T08:12:04.015Z,99413.63
2023-03-06T08:15:06.438Z,99414.53
2023-03-06T08:18:08.794Z,99408.63
2023-03-06T08:21:13.566Z,99412.09
2023-03-06T08:24:17.138Z,99421.28
2023-03-06T08:27:18.758Z,99420.00
2023-03-06T08:30:21.615Z,99414.53
2023-03-06T08:33:23.831Z,99419.28
2023-03-06T08:36:26.166Z,99421.38
2023-03-06T08:39:29.086Z,99419.97
2023-03-06T08:42:31.590Z,99410.88
2023-03-06T08:45:33.445Z,99409.34
2023-03-06T08:48:35.424Z,99408.81
2023-03-06T08:51:37.179Z,99408.66
2023-03-06T08:54:39.817Z,99412.28
2023-03-06T08:57:41.554Z,99422.78
2023-03-06T09:00:43.931Z,99429.25
2023-03-06T09:03:46.160Z,99433.28
2023-03-06T09:06:48.782Z,99440.97
2023-03-06T09:09:51.766Z,99437.69
2023-03-06T09:12:55.370Z,99440.88
2023-03-06T09:15:57.527Z,99448.31
2023-03-06T09:18:59.393Z,99450.94
2023-03-06T09:22:01.122Z,99457.06
2023-03-06T09:25:04.064Z,99453.84
2023-03-06T09:28:11.734Z,99457.66
2023-03-06T09:31:19.776Z,99464.66
2023-03-06T09:34:21.659Z,99469.50
2023-03-06T09:37:23.529Z,99464.28
2023-03-06T09:40:39.748Z,99462.75
2023-03-06T09:43:47.037Z,99468.41
2023-03-06T09:47:22.520Z,99471.50
2023-03-06T09:50:48.775Z,99466.69
2023-03-06T09:54:13.025Z,99468.16
2023-03-06T09:57:28.151Z,99474.34
2023-03-06T10:00:51.319Z,99475.72
2023-03-06T10:04:36.374Z,99473.16
2023-03-06T10:07:49.567Z,99477.69
2023-03-06T10:11:17.285Z,99477.28
2023-03-06T10:14:48.451Z,99475.47
2023-03-06T10:17:55.463Z,99467.75
2023-03-06T10:21:18.713Z,99471.91
2023-03-06T10:24:32.079Z,99474.69
2023-03-06T10:27:48.423Z,99471.34
2023-03-06T10:30:53.274Z,99473.81
2023-03-06T10:34:11.462Z,99461.28
2023-03-06T10:37:19.701Z,99463.41
2023-03-06T10:40:28.200Z,99464.66
2023-03-06T10:43:36.265Z,99461.53
2023-03-06T10:46:49.115Z,99462.81
2023-03-06T10:50:00.397Z,99470.34
2023-03-06T10:53:20.532Z,99473.16
2023-03-06T10:56:36.936Z,99480.47
2023-03-06T10:59:52.283Z,99475.25
2023-03-06T11:03:26.577Z,99483.56
2023-03-06T11:06:36.362Z,99492.56
2023-03-06T11:09:38.797Z,99489.13
2023-03-06T11:13:30.741Z,99484.72
2023-03-06T11:16:32.416Z,99498.75
2023-03-06T11:19:35.715Z,99500.84
2023-03-06T11:22:45.980Z,99494.59
2023-03-06T11:26:03.813Z,99507.19
2023-03-06T11:29:17.593Z,99501.09
2023-03-06T11:32:48.235Z,99497.28
2023-03-06T11:35:57.906Z,99491.69
2023-03-06T11:39:02.114Z,99480.16
2023-03-06T11:42:14.075Z,99478.75
2023-03-06T11:45:46.345Z,99478.84
2023-03-06T11:49:12.303Z,99480.38
2023-03-06T11:52:48.824Z,99476.59
2023-03-06T11:56:18.490Z,99463.22
2023-03-06T11:59:38.283Z,99470.72
2023-03-06T12:03:11.273Z,99464.78
2023-03-06T12:06:39.502Z,99467.16
2023-03-06T12:09:59.401Z,99456.88
2023-03-06T12:13:28.857Z,99451.53
2023-03-06T12:17:11.277Z,99457.13
2023-03-06T12:20:33.112Z,99457.13
2023-03-06T12:24:03.569Z,99454.53
2023-03-06T12:27:11.269Z,99450.66
2023-03-06T12:30:33.633Z,99458.94
2023-03-06T12:34:07.704Z,99450.72
2023-03-06T12:37:09.908Z,99442.28
2023-03-06T12:40:47.014Z,99450.47
2023-03-06T12:44:16.708Z,99456.16
2023-03-06T12:47:23.739Z,99449.44
2023-03-06T12:50:25.485Z,99449.41
2023-03-06T12:53:33.032Z,99455.50
2023-03-06T12:56:35.690Z,99450.00
2023-03-06T12:59:48.897Z,99448.53
2023-03-06T13:03:04.485Z,99444.63
2023-03-06T13:07:04.852Z,99446.66
2023-03-06T13:10:28.276Z,99443.16
2023-03-06T13:13:41.610Z,99441.78
2023-03-06T13:16:43.377Z,99434.19
2023-03-06T13:19:45.207Z,99437.91
2023-03-06T13:22:48.052Z,99427.13
2023-03-06T13:25:51.046Z,99427.28
2023-03-06T13:28:56.380Z,99434.34
2023-03-06T13:32:00.882Z,99436.25
2023-03-06T13:35:22.776Z,99430.97
2023-03-06T13:38:41.176Z,99425.47
2023-03-06T13:41:58.227Z,99416.94
2023-03-06T13:45:15.312Z,99424.19
2023-03-06T13:48:43.002Z,99432.00
2023-03-06T13:51:51.463Z,99422.34
2023-03-06T13:55:03.366Z,99427.53
2023-03-06T13:58:08.070Z,99430.22
2023-03-06T14:01:16.091Z,99420.81
2023-03-06T14:04:54.873Z,99411.69
2023-03-06T14:08:13.759Z,99414.72
2023-03-06T14:11:21.515Z,99404.56
2023-03-06T14:14:47.965Z,99406.63
2023-03-06T14:18:02.006Z,99407.00
2023-03-06T14:21:06.188Z,99397.59
2023-03-06T14:24:27.044Z,99399.09
2023-03-06T14:27:40.083Z,99388.47
2023-03-06T14:30:50.349Z,99392.34
2023-03-06T14:34:09.084Z,99381.94
2023-03-06T14:37:21.759Z,99368.88
2023-03-06T14:40:34.286Z,99370.50
2023-03-06T14:43:35.878Z,99380.22
2023-03-06T14:46:37.773Z,99374.03
2023-03-06T14:49:39.672Z,99380.78
2023-03-06T14:52:41.622Z,99373.31
2023-03-06T14:55:56.952Z,99372.16
2023-03-06T14:59:02.443Z,99376.47
2023-03-06T15:02:09.712Z,99372.63
2023-03-06T15:05:36.358Z,99376.94
2023-03-06T15:08:39.979Z,99369.34
2023-03-06T15:11:56.466Z,99365.22
2023-03-06T15:15:06.063Z,99366.03
2023-03-06T15:18:30.143Z,99360.00
2023-03-06T15:21:39.152Z,99354.72
2023-03-06T15:24:40.968Z,99359.16
2023-03-06T15:27:58.197Z,99355.75
2023-03-06T15:31:24.502Z,99350.44
2023-03-06T15:34:26.380Z,99352.16
2023-03-06T15:37:28.940Z,99349.81
2023-03-06T15:40:32.022Z,99344.09
2023-03-06T15:43:40.484Z,99348.25
2023-03-06T15:46:42.424Z,99342.53
2023-03-06T15:49:44.725Z,99343.28
2023-03-06T15:52:48.342Z,99341.28
2023-03-06T15:55:52.137Z,99344.25
2023-03-06T15:58:54.332Z,99344.56
2023-03-06T16:01:56.086Z,99344.22
2023-03-06T16:04:57.731Z,99344.13
2023-03-06T16:07:59.390Z,99346.41
2023-03-06T16:11:01.111Z,99334.25
2023-03-06T16:14:02.997Z,99336.31
2023-03-06T16:17:04.673Z,99330.91
2023-03-06T16:20:09.142Z,99330.41
2023-03-06T16:23:11.154Z,99318.63
2023-03-06T16:26:39.830Z,99322.22
2023-03-06T16:29:41.448Z,99327.66
2023-03-06T16:32:45.047Z,99326.63
2023-03-06T16:35:47.346Z,99327.56
2023-03-06T16:38:50.942Z,99324.09
2023-03-06T16:41:52.624Z,99319.88
2023-03-06T16:44:54.385Z,99324.06
2023-03-06T16:47:58.782Z,99315.66
2023-03-06T16:51:01.580Z,99318.28
2023-03-06T16:54:03.586Z,99323.47
2023-03-06T16:57:06.665Z,99325.25
2023-03-06T17:00:11.298Z,99318.56
2023-03-06T17:03:13.423Z,99320.97
2023-03-06T17:06:17.640Z,99319.97
2023-03-06T17:09:19.240Z,99314.72
2023-03-06T17:12:21.800Z,99316.09
2023-03-06T17:15:25.013Z,99321.78
2023-03-06T17:18:27.897Z,99318.84
2023-03-06T17:21:30.420Z,99325.34
2023-03-06T17:24:32.624Z,99327.22
2023-03-06T17:27:35.413Z,99321.78
2023-03-06T17:30:37.448Z,99321.41
2023-03-06T17:33:39.110Z,99309.03
2023-03-06T17:36:40.736Z,99313.03
2023-03-06T17:39:44.932Z,99311.00
2023-03-06T17:42:46.798Z,99310.38
2023-03-06T17:45:48.640Z,99315.09
2023-03-06T17:48:50.595Z,99306.06
2023-03-06T17:51:53.076Z,99312.81
2023-03-06T17:54:54.820Z,99310.69
2023-03-06T17:57:56.424Z,99306.59
2023-03-06T18:00:58.415Z,99312.34
2023-03-06T18:04:02.412Z,99310.44
2023-03-06T18:07:05.398Z,99308.91
2023-03-06T18:10:07.466Z,99303.91
2023-03-06T18:13:10.779Z,99305.47
2023-03-06T18:16:14.781Z,99301.66
2023-03-06T18:19:17.697Z,99295.63
2023-03-06T18:22:19.546Z,99298.13
2023-03-06T18:25:21.222Z,99295.09
2023-03-06T18:28:26.034Z,99293.91
2023-03-06T18:31:33.772Z,99288.63
2023-03-06T18:34:36.553Z,99280.97
2023-03-06T18:37:41.049Z,99284.72
2023-03-06T18:40:43.120Z,99287.63
2023-03-06T18:43:45.557Z,99281.16
2023-03-06T18:46:47.215Z,99274.34
2023-03-06T18:49:49.454Z,99272.69
2023-03-06T18:52:51.007Z,99269.34
2023-03-06T18:55:56.529Z,99270.88
2023-03-06T18:59:05.865Z,99251.81
2023-03-06T19:02:07.794Z,99253.81
2023-03-06T19:05:09.792Z,99254.88
2023-03-06T19:08:11.924Z,99256.97
2023-03-06T19:11:17.030Z,99250.06
2023-03-06T19:14:18.538Z,99236.78
2023-03-06T19:17:20.440Z,99245.56
2023-03-06T19:20:23.324Z,99241.38
2023-03-06T19:23:25.176Z,99244.00
2023-03-06T19:26:30.982Z,99238.84
2023-03-06T19:29:33.475Z,99235.84
2023-03-06T19:32:35.521Z,99230.56
2023-03-06T19:35:37.695Z,99228.50
2023-03-06T19:38:42.845Z,99228.94
2023-03-06T19:41:46.630Z,99222.38
2023-03-06T19:44:48.375Z,99219.03
2023-03-06T19:47:51.163Z,99215.75
2023-03-06T19:50:52.818Z,99214.88
2023-03-06T19:53:54.586Z,99208.78
2023-03-06T19:56:56.918Z,99205.22
2023-03-06T19:59:59.246Z,99206.13
2023-03-06T20:03:01.800Z,99202.84
2023-03-06T20:06:06.985Z,99197.75
2023-03-06T20:09:09.384Z,99192.84
2023-03-06T20:12:11.220Z,99177.66
2023-03-06T20:15:13.112Z,99175.22
2023-03-06T20:18:15.464Z,99176.13
2023-03-06T20:21:17.007Z,99173.72
2023-03-06T20:24:19.137Z,99178.09
2023-03-06T20:27:20.716Z,99173.06
2023-03-06T20:30:26.358Z,99161.69
2023-03-06T20:33:29.297Z,99159.59
2023-03-06T20:36:37.329Z,99158.19
2023-03-06T20:39:39.283Z,99149.88
2023-03-06T20:42:40.820Z,99157.31
2023-03-06T20:45:42.492Z,99146.22
2023-03-06T20:48:49.339Z,99146.78
2023-03-06T20:51:51.197Z,99142.44
2023-03-06T20:54:52.829Z,99138.72
2023-03-06T20:57:54.708Z,99138.28
2023-03-06T21:00:57.450Z,99142.03
2023-03-06T21:04:00.345Z,99132.88
2023-03-06T21:07:02.117Z,99114.34
2023-03-06T21:10:04.606Z,99113.59
2023-03-06T21:13:06.722Z,99110.69
2023-03-06T21:16:11.483Z,99105.94
2023-03-06T21:19:13.478Z,99101.91
2023-03-06T21:22:15.415Z,99103.56
2023-03-06T21:25:17.259Z,99100.09
2023-03-06T21:28:19.249Z,99087.38
2023-03-06T21:31:22.151Z,99084.47
2023-03-06T21:34:24.024Z,99084.34
2023-03-06T21:37:25.947Z,99078.97
2023-03-06T21:40:27.812Z,99065.03
2023-03-06T21:43:30.221Z,99051.94
2023-03-06T21:46:33.126Z,99048.38
2023-03-06T21:49:34.685Z,99043.28
2023-03-06T21:52:37.423Z,99042.88
2023-03-06T21:55:42.388Z,99035.16
2023-03-06T21:58:45.006Z,99033.41
2023-03-06T22:01:47.574Z,99028.44
2023-03-06T22:04:51.293Z,99020.25
2023-03-06T22:07:53.460Z,99014.53
2023-03-06T22:10:55.343Z,99010.44
2023-03-06T22:13:58.101Z,99005.47
2023-03-06T22:17:00.493Z,98999.44
2023-03-06T22:20:02.544Z,98985.09
2023-03-06T22:23:04.120Z,98985.25
2023-03-06T22:26:13.536Z,98981.53
2023-03-06T22:29:15.416Z,98969.31
2023-03-06T22:32:17.111Z,98962.47
2023-03-06T22:35:18.770Z,98952.28
2023-03-06T22:38:22.863Z,98947.28
2023-03-06T22:41:27.001Z,98946.47
2023-03-06T22:44:28.612Z,98930.47
2023-03-06T22:47:30.180Z,98928.56
2023-03-06T22:50:33.482Z,98925.38
2023-03-06T22:53:35.688Z,98913.66
2023-03-06T22:56:37.600Z,98908.41
2023-03-06T22:59:39.284Z,98900.75
2023-03-06T23:02:40.957Z,98900.75
2023-03-06T23:05:43.378Z,98900.84
2023-03-06T23:08:49.449Z,98883.13
2023-03-06T23:11:52.065Z,98870.47
2023-03-06T23:15:12.355Z,98863.41
2023-03-06T23:18:35.167Z,98857.19
2023-03-06T23:21:55.264Z,98851.88
2023-03-06T23:25:17.653Z,98832.00
2023-03-06T23:28:19.581Z,98834.34
2023-03-06T23:31:27.600Z,98832.09
2023-03-06T23:34:29.374Z,98825.97
2023-03-06T23:37:31.178Z,98816.03
2023-03-06T23:40:33.541Z,98813.59
2023-03-06T23:43:36.412Z,98809.31
2023-03-06T23:46:38.300Z,98808.09
2023-03-06T23:49:40.426Z,98798.00
2023-03-06T23:52:42.287Z,98795.25
2023-03-06T23:55:46.351Z,98786.13
2023-03-06T23:58:48.341Z,98773.16
